sensor_id;sensor_type;location;lat;lon;timestamp;temperature;humidity
55329;DHT22;41205;44.264;19.884;2024-01-15T00:01:55;76.90;2227.20
55329;DHT22;41205;44.264;19.884;2024-01-15T00:04:21;76.80;2227.20
55329;DHT22;41205;44.264;19.884;2024-01-15T00:06:47;76.90;2227.20
55329;DHT22;41205;44.264;19.884;2024-01-15T00:09:13;77.10;2227.20
55329;DHT22;41205;44.264;19.884;2024-01-15T00:11:39;77.10;2227.20
55329;DHT22;41205;44.264;19.884;2024-01-15T00:14:04;77.10;2227.20
55329;DHT22;41205;44.264;19.884;2024-01-15T00:16:30;77.20;2227.20
55329;DHT22;41205;44.264;19.884;2024-01-15T00:18:56;77.20;2227.20
55329;DHT22;41205;44.264;19.884;2024-01-15T00:21:22;77.40;2227.20
55329;DHT22;41205;44.264;19.884;2024-01-15T00:23:48;77.60;2227.20
55329;DHT22;41205;44.264;19.884;2024-01-15T00:26:14;102.40;2227.20
55329;DHT22;41205;44.264;19.884;2024-01-15T00:28:40;102.60;2227.20
55329;DHT22;41205;44.264;19.884;2024-01-15T00:31:06;102.40;2227.20
55329;DHT22;41205;44.264;19.884;2024-01-15T00:33:32;77.60;2227.20
55329;DHT22;41205;44.264;19.884;2024-01-15T00:35:58;77.40;2227.20
55329;DHT22;41205;44.264;19.884;2024-01-15T00:38:24;102.40;2227.20
55329;DHT22;41205;44.264;19.884;2024-01-15T00:40:49;102.70;2227.20
55329;DHT22;41205;44.264;19.884;2024-01-15T00:43:15;103.00;2227.20
55329;DHT22;41205;44.264;19.884;2024-01-15T00:45:43;103.00;2227.20
55329;DHT22;41205;44.264;19.884;2024-01-15T00:48:09;102.60;2227.20
55329;DHT22;41205;44.264;19.884;2024-01-15T00:50:35;102.70;2227.20
55329;DHT22;41205;44.264;19.884;2024-01-15T00:53:01;103.00;2227.20
55329;DHT22;41205;44.264;19.884;2024-01-15T00:55:28;102.60;2227.20
55329;DHT22;41205;44.264;19.884;2024-01-15T00:57:54;77.60;2227.20
55329;DHT22;41205;44.264;19.884;2024-01-15T01:00:19;77.30;2227.20
55329;DHT22;41205;44.264;19.884;2024-01-15T01:02:45;77.20;2227.20
55329;DHT22;41205;44.264;19.884;2024-01-15T01:05:11;77.20;2227.20
55329;DHT22;41205;44.264;19.884;2024-01-15T01:07:37;77.20;2227.20
55329;DHT22;41205;44.264;19.884;2024-01-15T01:10:03;77.20;2227.20
55329;DHT22;41205;44.264;19.884;2024-01-15T01:12:29;77.00;2227.20
55329;DHT22;41205;44.264;19.884;2024-01-15T01:14:55;77.00;2227.20
55329;DHT22;41205;44.264;19.884;2024-01-15T01:17:22;77.00;2227.20
55329;DHT22;41205;44.264;19.884;2024-01-15T01:19:49;77.00;2227.20
55329;DHT22;41205;44.264;19.884;2024-01-15T01:22:14;77.00;2227.20
55329;DHT22;41205;44.264;19.884;2024-01-15T01:24:40;77.10;2227.20
55329;DHT22;41205;44.264;19.884;2024-01-15T01:27:06;77.00;2227.20
55329;DHT22;41205;44.264;19.884;2024-01-15T01:29:32;76.90;2227.20
55329;DHT22;41205;44.264;19.884;2024-01-15T01:31:58;77.10;2227.20
55329;DHT22;41205;44.264;19.884;2024-01-15T01:34:24;51.90;2227.20
55329;DHT22;41205;44.264;19.884;2024-01-15T01:36:50;51.60;2227.20
55329;DHT22;41205;44.264;19.884;2024-01-15T01:39:16;51.50;2227.20
55329;DHT22;41205;44.264;19.884;2024-01-15T01:41:41;51.40;2227.20
55329;DHT22;41205;44.264;19.884;2024-01-15T01:44:07;51.70;2227.20
55329;DHT22;41205;44.264;19.884;2024-01-15T01:46:34;51.90;2227.20
55329;DHT22;41205;44.264;19.884;2024-01-15T01:49:04;51.80;2227.20
55329;DHT22;41205;44.264;19.884;2024-01-15T01:51:32;51.70;2227.20
55329;DHT22;41205;44.264;19.884;2024-01-15T01:53:59;51.80;2227.20
55329;DHT22;41205;44.264;19.884;2024-01-15T01:56:24;51.90;2227.20
55329;DHT22;41205;44.264;19.884;2024-01-15T01:58:50;52.00;2227.20
55329;DHT22;41205;44.264;19.884;2024-01-15T02:01:17;76.90;2227.20
55329;DHT22;41205;44.264;19.884;2024-01-15T02:03:43;76.90;2227.20
55329;DHT22;41205;44.264;19.884;2024-01-15T02:06:09;76.90;2227.20
55329;DHT22;41205;44.264;19.884;2024-01-15T02:08:35;76.80;2227.20
55329;DHT22;41205;44.264;19.884;2024-01-15T02:11:01;52.00;2227.20
55329;DHT22;41205;44.264;19.884;2024-01-15T02:13:27;51.90;2227.20
55329;DHT22;41205;44.264;19.884;2024-01-15T02:15:53;51.90;2227.20
55329;DHT22;41205;44.264;19.884;2024-01-15T02:18:19;51.80;2227.20
55329;DHT22;41205;44.264;19.884;2024-01-15T02:20:45;51.80;2227.20
55329;DHT22;41205;44.264;19.884;2024-01-15T02:23:13;51.90;2227.20
55329;DHT22;41205;44.264;19.884;2024-01-15T02:25:44;51.50;2227.20
55329;DHT22;41205;44.264;19.884;2024-01-15T02:28:13;26.20;2201.60
55329;DHT22;41205;44.264;19.884;2024-01-15T02:30:40;26.20;2201.60
55329;DHT22;41205;44.264;19.884;2024-01-15T02:33:07;26.20;2201.60
55329;DHT22;41205;44.264;19.884;2024-01-15T02:35:33;26.30;2201.60
55329;DHT22;41205;44.264;19.884;2024-01-15T02:38:02;26.20;2201.60
55329;DHT22;41205;44.264;19.884;2024-01-15T02:40:28;26.20;2201.60
55329;DHT22;41205;44.264;19.884;2024-01-15T02:42:53;26.20;2201.60
55329;DHT22;41205;44.264;19.884;2024-01-15T02:45:20;26.30;2201.60
55329;DHT22;41205;44.264;19.884;2024-01-15T02:47:46;26.40;2201.60
55329;DHT22;41205;44.264;19.884;2024-01-15T02:50:12;26.30;2201.60
55329;DHT22;41205;44.264;19.884;2024-01-15T02:52:37;26.40;2201.60
55329;DHT22;41205;44.264;19.884;2024-01-15T02:55:04;26.50;2201.60
55329;DHT22;41205;44.264;19.884;2024-01-15T02:57:30;51.30;2227.20
55329;DHT22;41205;44.264;19.884;2024-01-15T02:59:55;51.50;2227.20
55329;DHT22;41205;44.264;19.884;2024-01-15T03:02:21;51.50;2227.20
55329;DHT22;41205;44.264;19.884;2024-01-15T03:04:47;51.50;2227.20
55329;DHT22;41205;44.264;19.884;2024-01-15T03:07:13;51.60;2227.20
55329;DHT22;41205;44.264;19.884;2024-01-15T03:09:38;51.70;2227.20
55329;DHT22;41205;44.264;19.884;2024-01-15T03:12:04;51.70;2227.20
55329;DHT22;41205;44.264;19.884;2024-01-15T03:14:31;51.60;2227.20
55329;DHT22;41205;44.264;19.884;2024-01-15T03:16:56;51.50;2227.20
55329;DHT22;41205;44.264;19.884;2024-01-15T03:19:22;51.60;2227.20
55329;DHT22;41205;44.264;19.884;2024-01-15T03:21:48;51.50;2227.20
55329;DHT22;41205;44.264;19.884;2024-01-15T03:24:14;51.90;2227.20
55329;DHT22;41205;44.264;19.884;2024-01-15T03:26:39;51.90;2227.20
55329;DHT22;41205;44.264;19.884;2024-01-15T03:29:05;51.30;2227.20
55329;DHT22;41205;44.264;19.884;2024-01-15T03:31:31;26.50;2201.60
55329;DHT22;41205;44.264;19.884;2024-01-15T03:33:57;51.30;2227.20
55329;DHT22;41205;44.264;19.884;2024-01-15T03:36:23;51.30;2227.20
55329;DHT22;41205;44.264;19.884;2024-01-15T03:38:49;51.20;2227.20
55329;DHT22;41205;44.264;19.884;2024-01-15T03:41:14;26.40;2201.60
55329;DHT22;41205;44.264;19.884;2024-01-15T03:43:40;26.50;2201.60
55329;DHT22;41205;44.264;19.884;2024-01-15T03:46:06;26.50;2201.60
55329;DHT22;41205;44.264;19.884;2024-01-15T03:48:32;26.50;2201.60
55329;DHT22;41205;44.264;19.884;2024-01-15T03:50:58;26.50;2201.60
55329;DHT22;41205;44.264;19.884;2024-01-15T03:53:23;26.50;2201.60
55329;DHT22;41205;44.264;19.884;2024-01-15T03:55:50;51.30;2227.20
55329;DHT22;41205;44.264;19.884;2024-01-15T03:58:16;51.50;2227.20
55329;DHT22;41205;44.264;19.884;2024-01-15T04:00:42;51.70;2227.20
55329;DHT22;41205;44.264;19.884;2024-01-15T04:03:08;51.50;2227.20
55329;DHT22;41205;44.264;19.884;2024-01-15T04:05:34;51.30;2227.20
55329;DHT22;41205;44.264;19.884;2024-01-15T04:08:00;26.40;2201.60
55329;DHT22;41205;44.264;19.884;2024-01-15T04:10:26;26.50;2201.60
55329;DHT22;41205;44.264;19.884;2024-01-15T04:12:52;26.50;2201.60
55329;DHT22;41205;44.264;19.884;2024-01-15T04:15:17;51.20;2227.20
55329;DHT22;41205;44.264;19.884;2024-01-15T04:17:43;51.30;2227.20
55329;DHT22;41205;44.264;19.884;2024-01-15T04:20:09;26.50;2201.60
55329;DHT22;41205;44.264;19.884;2024-01-15T04:22:35;51.20;2227.20
55329;DHT22;41205;44.264;19.884;2024-01-15T04:25:01;51.60;2227.20
55329;DHT22;41205;44.264;19.884;2024-01-15T04:27:27;52.00;2227.20
55329;DHT22;41205;44.264;19.884;2024-01-15T04:29:53;76.90;2227.20
55329;DHT22;41205;44.264;19.884;2024-01-15T04:32:19;76.90;2227.20
55329;DHT22;41205;44.264;19.884;2024-01-15T04:34:45;76.80;2227.20
55329;DHT22;41205;44.264;19.884;2024-01-15T04:37:11;52.10;2227.20
55329;DHT22;41205;44.264;19.884;2024-01-15T04:39:38;52.10;2227.20
55329;DHT22;41205;44.264;19.884;2024-01-15T04:42:04;76.80;2227.20
55329;DHT22;41205;44.264;19.884;2024-01-15T04:44:30;77.00;2227.20
55329;DHT22;41205;44.264;19.884;2024-01-15T04:46:56;77.10;2227.20
55329;DHT22;41205;44.264;19.884;2024-01-15T04:49:22;77.00;2227.20
55329;DHT22;41205;44.264;19.884;2024-01-15T04:51:47;76.80;2227.20
55329;DHT22;41205;44.264;19.884;2024-01-15T04:54:13;76.90;2227.20
55329;DHT22;41205;44.264;19.884;2024-01-15T04:56:43;77.00;2227.20
55329;DHT22;41205;44.264;19.884;2024-01-15T04:59:10;77.20;2227.20
55329;DHT22;41205;44.264;19.884;2024-01-15T05:01:36;77.10;2227.20
55329;DHT22;41205;44.264;19.884;2024-01-15T05:04:02;77.20;2227.20
55329;DHT22;41205;44.264;19.884;2024-01-15T05:06:28;77.10;2227.20
55329;DHT22;41205;44.264;19.884;2024-01-15T05:08:53;77.00;2227.20
55329;DHT22;41205;44.264;19.884;2024-01-15T05:11:19;77.10;2227.20
55329;DHT22;41205;44.264;19.884;2024-01-15T05:13:45;76.90;2227.20
55329;DHT22;41205;44.264;19.884;2024-01-15T05:16:11;76.90;2227.20
55329;DHT22;41205;44.264;19.884;2024-01-15T05:18:37;77.20;2227.20
55329;DHT22;41205;44.264;19.884;2024-01-15T05:21:03;77.30;2227.20
55329;DHT22;41205;44.264;19.884;2024-01-15T05:23:31;77.50;2227.20
55329;DHT22;41205;44.264;19.884;2024-01-15T05:25:57;77.70;2227.20
55329;DHT22;41205;44.264;19.884;2024-01-15T05:28:23;77.70;2227.20
55329;DHT22;41205;44.264;19.884;2024-01-15T05:30:49;77.70;2227.20
55329;DHT22;41205;44.264;19.884;2024-01-15T05:33:16;77.50;2227.20
55329;DHT22;41205;44.264;19.884;2024-01-15T05:35:42;77.70;2227.20
55329;DHT22;41205;44.264;19.884;2024-01-15T05:38:08;77.70;2227.20
55329;DHT22;41205;44.264;19.884;2024-01-15T05:40:34;77.70;2227.20
55329;DHT22;41205;44.264;19.884;2024-01-15T05:42:59;77.50;2227.20
55329;DHT22;41205;44.264;19.884;2024-01-15T05:45:26;102.40;2227.20
55329;DHT22;41205;44.264;19.884;2024-01-15T05:47:52;77.70;2227.20
55329;DHT22;41205;44.264;19.884;2024-01-15T05:50:18;77.70;2227.20
55329;DHT22;41205;44.264;19.884;2024-01-15T05:52:44;102.40;2227.20
55329;DHT22;41205;44.264;19.884;2024-01-15T05:55:10;77.60;2227.20
55329;DHT22;41205;44.264;19.884;2024-01-15T05:57:36;77.60;2227.20
55329;DHT22;41205;44.264;19.884;2024-01-15T06:00:03;77.50;2227.20
55329;DHT22;41205;44.264;19.884;2024-01-15T06:02:28;77.30;2227.20
55329;DHT22;41205;44.264;19.884;2024-01-15T06:04:54;77.40;2227.20
55329;DHT22;41205;44.264;19.884;2024-01-15T06:07:23;77.20;2227.20
55329;DHT22;41205;44.264;19.884;2024-01-15T06:09:49;77.30;2227.20
55329;DHT22;41205;44.264;19.884;2024-01-15T06:12:15;77.20;2227.20
55329;DHT22;41205;44.264;19.884;2024-01-15T06:14:40;77.20;2227.20
55329;DHT22;41205;44.264;19.884;2024-01-15T06:17:08;77.30;2227.20
55329;DHT22;41205;44.264;19.884;2024-01-15T06:19:33;77.40;2227.20
55329;DHT22;41205;44.264;19.884;2024-01-15T06:21:59;77.40;2227.20
55329;DHT22;41205;44.264;19.884;2024-01-15T06:24:25;77.40;2227.20
55329;DHT22;41205;44.264;19.884;2024-01-15T06:26:51;77.40;2227.20
55329;DHT22;41205;44.264;19.884;2024-01-15T06:29:17;77.40;2227.20
55329;DHT22;41205;44.264;19.884;2024-01-15T06:31:42;77.40;2227.20
55329;DHT22;41205;44.264;19.884;2024-01-15T06:34:08;77.60;2227.20
55329;DHT22;41205;44.264;19.884;2024-01-15T06:36:34;77.70;2227.20
55329;DHT22;41205;44.264;19.884;2024-01-15T06:39:00;77.70;2227.20
55329;DHT22;41205;44.264;19.884;2024-01-15T06:41:25;102.60;2227.20
55329;DHT22;41205;44.264;19.884;2024-01-15T06:43:51;102.60;2227.20
55329;DHT22;41205;44.264;19.884;2024-01-15T06:46:21;102.60;2227.20
55329;DHT22;41205;44.264;19.884;2024-01-15T06:48:47;102.60;2227.20
55329;DHT22;41205;44.264;19.884;2024-01-15T06:51:13;102.80;2227.20
55329;DHT22;41205;44.264;19.884;2024-01-15T06:53:38;102.80;2227.20
55329;DHT22;41205;44.264;19.884;2024-01-15T06:56:04;102.90;2227.20
55329;DHT22;41205;44.264;19.884;2024-01-15T06:58:33;103.10;2227.20
55329;DHT22;41205;44.264;19.884;2024-01-15T07:00:59;128.10;2252.80
55329;DHT22;41205;44.264;19.884;2024-01-15T07:03:25;128.40;2252.80
55329;DHT22;41205;44.264;19.884;2024-01-15T07:05:51;103.10;2227.20
55329;DHT22;41205;44.264;19.884;2024-01-15T07:08:16;102.80;2227.20
55329;DHT22;41205;44.264;19.884;2024-01-15T07:10:42;103.10;2227.20
55329;DHT22;41205;44.264;19.884;2024-01-15T07:13:08;103.10;2227.20
55329;DHT22;41205;44.264;19.884;2024-01-15T07:15:34;103.30;2227.20
55329;DHT22;41205;44.264;19.884;2024-01-15T07:18:00;128.10;2252.80
55329;DHT22;41205;44.264;19.884;2024-01-15T07:20:26;128.10;2252.80
55329;DHT22;41205;44.264;19.884;2024-01-15T07:22:51;128.00;2252.80
55329;DHT22;41205;44.264;19.884;2024-01-15T07:25:17;128.20;2252.80
55329;DHT22;41205;44.264;19.884;2024-01-15T07:27:43;128.30;2252.80
55329;DHT22;41205;44.264;19.884;2024-01-15T07:30:11;128.60;2252.80
55329;DHT22;41205;44.264;19.884;2024-01-15T07:32:37;128.90;2252.80
55329;DHT22;41205;44.264;19.884;2024-01-15T07:35:04;153.70;2252.80
55329;DHT22;41205;44.264;19.884;2024-01-15T07:37:29;154.00;2252.80
55329;DHT22;41205;44.264;19.884;2024-01-15T07:39:55;179.20;2252.80
55329;DHT22;41205;44.264;19.884;2024-01-15T07:42:21;179.60;2252.80
55329;DHT22;41205;44.264;19.884;2024-01-15T07:44:47;179.90;2252.80
55329;DHT22;41205;44.264;19.884;2024-01-15T07:47:13;204.80;2252.80
55329;DHT22;41205;44.264;19.884;2024-01-15T07:49:39;179.80;2252.80
55329;DHT22;41205;44.264;19.884;2024-01-15T07:52:04;179.20;2252.80
55329;DHT22;41205;44.264;19.884;2024-01-15T07:54:31;179.60;2252.80
55329;DHT22;41205;44.264;19.884;2024-01-15T07:57:01;179.80;2252.80
55329;DHT22;41205;44.264;19.884;2024-01-15T07:59:30;179.80;2252.80
55329;DHT22;41205;44.264;19.884;2024-01-15T08:01:58;179.70;2252.80
55329;DHT22;41205;44.264;19.884;2024-01-15T08:04:23;179.60;2252.80
55329;DHT22;41205;44.264;19.884;2024-01-15T08:06:49;179.30;2252.80
55329;DHT22;41205;44.264;19.884;2024-01-15T08:09:15;179.20;2252.80
55329;DHT22;41205;44.264;19.884;2024-01-15T08:11:41;154.50;2252.80
55329;DHT22;41205;44.264;19.884;2024-01-15T08:14:08;179.40;2252.80
55329;DHT22;41205;44.264;19.884;2024-01-15T08:16:33;179.50;2252.80
55329;DHT22;41205;44.264;19.884;2024-01-15T08:18:59;179.80;2252.80
55329;DHT22;41205;44.264;19.884;2024-01-15T08:21:25;179.80;2252.80
55329;DHT22;41205;44.264;19.884;2024-01-15T08:23:52;179.90;2252.80
55329;DHT22;41205;44.264;19.884;2024-01-15T08:26:18;180.10;2252.80
55329;DHT22;41205;44.264;19.884;2024-01-15T08:28:44;179.70;2252.80
55329;DHT22;41205;44.264;19.884;2024-01-15T08:31:09;179.70;2252.80
55329;DHT22;41205;44.264;19.884;2024-01-15T08:33:35;179.60;2252.80
55329;DHT22;41205;44.264;19.884;2024-01-15T08:36:01;179.60;2252.80
55329;DHT22;41205;44.264;19.884;2024-01-15T08:38:27;179.50;2252.80
55329;DHT22;41205;44.264;19.884;2024-01-15T08:40:53;179.70;2252.80
55329;DHT22;41205;44.264;19.884;2024-01-15T08:43:22;179.80;2252.80
55329;DHT22;41205;44.264;19.884;2024-01-15T08:45:47;179.90;2252.80
55329;DHT22;41205;44.264;19.884;2024-01-15T08:48:13;180.10;2252.80
55329;DHT22;41205;44.264;19.884;2024-01-15T08:50:39;179.90;2252.80
55329;DHT22;41205;44.264;19.884;2024-01-15T08:53:05;179.90;2252.80
55329;DHT22;41205;44.264;19.884;2024-01-15T08:55:31;179.80;2252.80
55329;DHT22;41205;44.264;19.884;2024-01-15T08:57:56;179.80;2252.80
55329;DHT22;41205;44.264;19.884;2024-01-15T09:00:22;180.10;2252.80
55329;DHT22;41205;44.264;19.884;2024-01-15T09:02:48;205.10;2252.80
55329;DHT22;41205;44.264;19.884;2024-01-15T09:05:14;205.30;2252.80
55329;DHT22;41205;44.264;19.884;2024-01-15T09:07:39;180.00;2252.80
55329;DHT22;41205;44.264;19.884;2024-01-15T09:10:06;205.00;2252.80
55329;DHT22;41205;44.264;19.884;2024-01-15T09:12:32;205.20;2252.80
55329;DHT22;41205;44.264;19.884;2024-01-15T09:14:57;205.50;2252.80
55329;DHT22;41205;44.264;19.884;2024-01-15T09:17:23;205.30;2252.80
55329;DHT22;41205;44.264;19.884;2024-01-15T09:19:49;204.80;2252.80
55329;DHT22;41205;44.264;19.884;2024-01-15T09:22:15;205.30;2252.80
55329;DHT22;41205;44.264;19.884;2024-01-15T09:24:47;205.30;2252.80
55329;DHT22;41205;44.264;19.884;2024-01-15T09:27:13;205.20;2252.80
55329;DHT22;41205;44.264;19.884;2024-01-15T09:29:39;205.30;2252.80
55329;DHT22;41205;44.264;19.884;2024-01-15T09:32:07;205.40;2252.80
55329;DHT22;41205;44.264;19.884;2024-01-15T09:34:36;205.30;2252.80
55329;DHT22;41205;44.264;19.884;2024-01-15T09:37:01;205.40;2252.80
55329;DHT22;41205;44.264;19.884;2024-01-15T09:39:28;205.50;2252.80
55329;DHT22;41205;44.264;19.884;2024-01-15T09:41:54;205.50;2252.80
55329;DHT22;41205;44.264;19.884;2024-01-15T09:44:21;205.50;2252.80
55329;DHT22;41205;44.264;19.884;2024-01-15T09:46:47;205.60;2252.80
55329;DHT22;41205;44.264;19.884;2024-01-15T09:49:16;205.40;2252.80
55329;DHT22;41205;44.264;19.884;2024-01-15T09:51:42;205.20;2252.80
55329;DHT22;41205;44.264;19.884;2024-01-15T09:54:09;205.20;2252.80
55329;DHT22;41205;44.264;19.884;2024-01-15T09:56:35;205.10;2252.80
55329;DHT22;41205;44.264;19.884;2024-01-15T09:59:01;205.20;2252.80
55329;DHT22;41205;44.264;19.884;2024-01-15T10:01:28;205.10;2252.80
55329;DHT22;41205;44.264;19.884;2024-01-15T10:03:55;205.30;2252.80
55329;DHT22;41205;44.264;19.884;2024-01-15T10:06:21;205.10;2252.80
55329;DHT22;41205;44.264;19.884;2024-01-15T10:08:50;204.80;2252.80
55329;DHT22;41205;44.264;19.884;2024-01-15T10:11:16;205.00;2252.80
55329;DHT22;41205;44.264;19.884;2024-01-15T10:13:43;205.10;2252.80
55329;DHT22;41205;44.264;19.884;2024-01-15T10:16:09;204.90;2252.80
55329;DHT22;41205;44.264;19.884;2024-01-15T10:18:35;179.80;2252.80
55329;DHT22;41205;44.264;19.884;2024-01-15T10:21:03;179.70;2252.80
55329;DHT22;41205;44.264;19.884;2024-01-15T10:23:31;180.00;2252.80
55329;DHT22;41205;44.264;19.884;2024-01-15T10:25:58;180.00;2252.80
55329;DHT22;41205;44.264;19.884;2024-01-15T10:28:26;180.10;2252.80
55329;DHT22;41205;44.264;19.884;2024-01-15T10:30:55;179.80;2252.80
55329;DHT22;41205;44.264;19.884;2024-01-15T10:33:25;179.80;2252.80
55329;DHT22;41205;44.264;19.884;2024-01-15T10:35:58;179.80;2252.80
55329;DHT22;41205;44.264;19.884;2024-01-15T10:38:25;179.80;2252.80
55329;DHT22;41205;44.264;19.884;2024-01-15T10:40:55;180.00;2252.80
55329;DHT22;41205;44.264;19.884;2024-01-15T10:43:21;179.90;2252.80
55329;DHT22;41205;44.264;19.884;2024-01-15T10:45:49;179.90;2252.80
55329;DHT22;41205;44.264;19.884;2024-01-15T10:48:17;180.00;2252.80
55329;DHT22;41205;44.264;19.884;2024-01-15T10:50:47;180.00;2252.80
55329;DHT22;41205;44.264;19.884;2024-01-15T10:53:15;180.10;2252.80
55329;DHT22;41205;44.264;19.884;2024-01-15T10:55:42;204.80;2252.80
55329;DHT22;41205;44.264;19.884;2024-01-15T10:58:09;204.90;2252.80
55329;DHT22;41205;44.264;19.884;2024-01-15T11:00:38;180.10;2252.80
55329;DHT22;41205;44.264;19.884;2024-01-15T11:03:05;204.90;2252.80
55329;DHT22;41205;44.264;19.884;2024-01-15T11:05:37;205.00;2252.80
55329;DHT22;41205;44.264;19.884;2024-01-15T11:08:07;205.10;2252.80
55329;DHT22;41205;44.264;19.884;2024-01-15T11:10:44;205.30;2252.80
55329;DHT22;41205;44.264;19.884;2024-01-15T11:13:22;205.20;2252.80
55329;DHT22;41205;44.264;19.884;2024-01-15T11:18:25;205.10;2252.80
55329;DHT22;41205;44.264;19.884;2024-01-15T11:23:46;205.10;2252.80
55329;DHT22;41205;44.264;19.884;2024-01-15T11:26:37;205.20;2252.80
55329;DHT22;41205;44.264;19.884;2024-01-15T11:29:08;205.20;2252.80
55329;DHT22;41205;44.264;19.884;2024-01-15T11:34:07;205.10;2252.80
55329;DHT22;41205;44.264;19.884;2024-01-15T11:42:00;205.00;2252.80
55329;DHT22;41205;44.264;19.884;2024-01-15T11:44:27;205.00;2252.80
55329;DHT22;41205;44.264;19.884;2024-01-15T11:47:03;205.00;2252.80
55329;DHT22;41205;44.264;19.884;2024-01-15T11:49:48;205.10;2252.80
55329;DHT22;41205;44.264;19.884;2024-01-15T11:52:20;205.00;2252.80
55329;DHT22;41205;44.264;19.884;2024-01-15T11:54:56;204.80;2252.80
55329;DHT22;41205;44.264;19.884;2024-01-15T11:57:37;180.10;2252.80
55329;DHT22;41205;44.264;19.884;2024-01-15T12:00:09;204.80;2252.80
55329;DHT22;41205;44.264;19.884;2024-01-15T12:02:36;204.80;2252.80
55329;DHT22;41205;44.264;19.884;2024-01-15T12:05:02;180.10;2252.80
55329;DHT22;41205;44.264;19.884;2024-01-15T12:07:28;180.10;2252.80
55329;DHT22;41205;44.264;19.884;2024-01-15T12:09:54;180.10;2252.80
55329;DHT22;41205;44.264;19.884;2024-01-15T12:15:11;179.90;2252.80
55329;DHT22;41205;44.264;19.884;2024-01-15T12:17:38;180.00;2252.80
55329;DHT22;41205;44.264;19.884;2024-01-15T12:20:07;180.10;2252.80
55329;DHT22;41205;44.264;19.884;2024-01-15T12:22:33;180.00;2252.80
55329;DHT22;41205;44.264;19.884;2024-01-15T12:24:59;180.00;2252.80
55329;DHT22;41205;44.264;19.884;2024-01-15T12:27:25;179.90;2252.80
55329;DHT22;41205;44.264;19.884;2024-01-15T12:29:53;179.90;2252.80
55329;DHT22;41205;44.264;19.884;2024-01-15T12:32:19;180.00;2252.80
55329;DHT22;41205;44.264;19.884;2024-01-15T12:34:44;180.10;2252.80
55329;DHT22;41205;44.264;19.884;2024-01-15T12:37:11;179.90;2252.80
55329;DHT22;41205;44.264;19.884;2024-01-15T12:39:37;204.80;2252.80
55329;DHT22;41205;44.264;19.884;2024-01-15T12:42:04;180.00;2252.80
55329;DHT22;41205;44.264;19.884;2024-01-15T12:44:31;180.00;2252.80
55329;DHT22;41205;44.264;19.884;2024-01-15T12:46:57;180.00;2252.80
55329;DHT22;41205;44.264;19.884;2024-01-15T12:49:24;180.10;2252.80
55329;DHT22;41205;44.264;19.884;2024-01-15T12:51:53;180.00;2252.80
55329;DHT22;41205;44.264;19.884;2024-01-15T12:54:20;180.00;2252.80
55329;DHT22;41205;44.264;19.884;2024-01-15T12:56:46;179.80;2252.80
55329;DHT22;41205;44.264;19.884;2024-01-15T12:59:11;179.70;2252.80
55329;DHT22;41205;44.264;19.884;2024-01-15T13:01:37;179.70;2252.80
55329;DHT22;41205;44.264;19.884;2024-01-15T13:04:03;179.70;2252.80
55329;DHT22;41205;44.264;19.884;2024-01-15T13:06:29;179.80;2252.80
55329;DHT22;41205;44.264;19.884;2024-01-15T13:08:55;179.80;2252.80
55329;DHT22;41205;44.264;19.884;2024-01-15T13:11:20;179.80;2252.80
55329;DHT22;41205;44.264;19.884;2024-01-15T13:13:46;180.00;2252.80
55329;DHT22;41205;44.264;19.884;2024-01-15T13:16:13;179.90;2252.80
55329;DHT22;41205;44.264;19.884;2024-01-15T13:18:38;180.00;2252.80
55329;DHT22;41205;44.264;19.884;2024-01-15T13:21:04;204.80;2252.80
55329;DHT22;41205;44.264;19.884;2024-01-15T13:23:30;204.80;2252.80
55329;DHT22;41205;44.264;19.884;2024-01-15T13:25:56;204.90;2252.80
55329;DHT22;41205;44.264;19.884;2024-01-15T13:28:21;204.80;2252.80
55329;DHT22;41205;44.264;19.884;2024-01-15T13:30:47;180.10;2252.80
55329;DHT22;41205;44.264;19.884;2024-01-15T13:33:13;204.90;2252.80
55329;DHT22;41205;44.264;19.884;2024-01-15T13:35:39;204.90;2252.80
55329;DHT22;41205;44.264;19.884;2024-01-15T13:38:04;204.90;2252.80
55329;DHT22;41205;44.264;19.884;2024-01-15T13:40:30;204.90;2252.80
55329;DHT22;41205;44.264;19.884;2024-01-15T13:42:56;204.90;2252.80
55329;DHT22;41205;44.264;19.884;2024-01-15T13:45:22;180.10;2252.80
55329;DHT22;41205;44.264;19.884;2024-01-15T13:47:49;180.00;2252.80
55329;DHT22;41205;44.264;19.884;2024-01-15T13:50:15;180.00;2252.80
55329;DHT22;41205;44.264;19.884;2024-01-15T13:52:41;180.10;2252.80
55329;DHT22;41205;44.264;19.884;2024-01-15T13:55:07;180.00;2252.80
55329;DHT22;41205;44.264;19.884;2024-01-15T13:57:34;179.90;2252.80
55329;DHT22;41205;44.264;19.884;2024-01-15T14:00:00;179.80;2252.80
55329;DHT22;41205;44.264;19.884;2024-01-15T14:02:26;179.90;2252.80
55329;DHT22;41205;44.264;19.884;2024-01-15T14:04:51;179.90;2252.80
55329;DHT22;41205;44.264;19.884;2024-01-15T14:07:17;180.00;2252.80
55329;DHT22;41205;44.264;19.884;2024-01-15T14:09:43;180.00;2252.80
55329;DHT22;41205;44.264;19.884;2024-01-15T14:12:08;180.00;2252.80
55329;DHT22;41205;44.264;19.884;2024-01-15T14:14:34;180.00;2252.80
55329;DHT22;41205;44.264;19.884;2024-01-15T14:17:00;180.00;2252.80
55329;DHT22;41205;44.264;19.884;2024-01-15T14:19:26;179.90;2252.80
55329;DHT22;41205;44.264;19.884;2024-01-15T14:21:52;179.90;2252.80
55329;DHT22;41205;44.264;19.884;2024-01-15T14:24:18;180.00;2252.80
55329;DHT22;41205;44.264;19.884;2024-01-15T14:26:44;180.00;2252.80
55329;DHT22;41205;44.264;19.884;2024-01-15T14:29:10;180.00;2252.80
55329;DHT22;41205;44.264;19.884;2024-01-15T14:31:35;180.00;2252.80
55329;DHT22;41205;44.264;19.884;2024-01-15T14:34:01;180.10;2252.80
55329;DHT22;41205;44.264;19.884;2024-01-15T14:36:28;180.00;2252.80
55329;DHT22;41205;44.264;19.884;2024-01-15T14:38:54;180.00;2252.80
55329;DHT22;41205;44.264;19.884;2024-01-15T14:41:20;180.00;2252.80
55329;DHT22;41205;44.264;19.884;2024-01-15T14:43:46;180.00;2252.80
55329;DHT22;41205;44.264;19.884;2024-01-15T14:46:12;205.00;2252.80
55329;DHT22;41205;44.264;19.884;2024-01-15T14:48:37;180.00;2252.80
55329;DHT22;41205;44.264;19.884;2024-01-15T14:51:03;180.00;2252.80
55329;DHT22;41205;44.264;19.884;2024-01-15T14:53:29;180.00;2252.80